sensor_id;sensor_type;location;lat;lon;timestamp;pressure;altitude;pressure_sealevel;temperature;humidity
9261;BME280;4667;42.726;23.252;2024-03-08T00:01:00;95147.97;;;5.51;70.38
9261;BME280;4667;42.726;23.252;2024-03-08T00:03:27;95260.22;;;6.21;70.27
9261;BME280;4667;42.726;23.252;2024-03-08T00:05:54;95179.97;;;5.71;69.36
9261;BME280;4667;42.726;23.252;2024-03-08T00:08:21;95255.69;;;6.28;69.67
9261;BME280;4667;42.726;23.252;2024-03-08T00:10:48;95265.75;;;6.31;69.38
9261;BME280;4667;42.726;23.252;2024-03-08T00:13:15;95258.81;;;6.18;69.98
9261;BME280;4667;42.726;23.252;2024-03-08T00:15:44;95266.53;;;6.32;69.24
9261;BME280;4667;42.726;23.252;2024-03-08T00:18:11;95267.34;;;6.32;69.05
9261;BME280;4667;42.726;23.252;2024-03-08T00:20:37;95265.81;;;6.24;69.03
9261;BME280;4667;42.726;23.252;2024-03-08T00:23:04;95268.88;;;6.21;69.38
9261;BME280;4667;42.726;23.252;2024-03-08T00:25:31;95112.34;;;5.13;69.69
9261;BME280;4667;42.726;23.252;2024-03-08T00:27:59;95266.03;;;6.23;70.20
9261;BME280;4667;42.726;23.252;2024-03-08T00:30:26;95172.19;;;5.65;70.63
9261;BME280;4667;42.726;23.252;2024-03-08T00:32:54;95260.34;;;6.26;70.60
9261;BME280;4667;42.726;23.252;2024-03-08T00:35:21;95260.34;;;6.26;70.42
9261;BME280;4667;42.726;23.252;2024-03-08T00:37:48;95238.38;;;6.09;71.09
9261;BME280;4667;42.726;23.252;2024-03-08T00:40:16;95209.78;;;5.89;71.70
9261;BME280;4667;42.726;23.252;2024-03-08T00:42:42;95209.16;;;5.93;71.35
9261;BME280;4667;42.726;23.252;2024-03-08T00:45:10;95146.69;;;5.60;71.06
9261;BME280;4667;42.726;23.252;2024-03-08T00:47:37;95251.56;;;6.20;71.25
9261;BME280;4667;42.726;23.252;2024-03-08T00:50:06;95255.63;;;6.16;71.59
9261;BME280;4667;42.726;23.252;2024-03-08T00:52:33;95190.31;;;5.85;71.37
9261;BME280;4667;42.726;23.252;2024-03-08T00:55:00;95244.50;;;6.21;71.01
9261;BME280;4667;42.726;23.252;2024-03-08T00:57:27;95244.28;;;6.22;71.08
9261;BME280;4667;42.726;23.252;2024-03-08T00:59:55;95217.97;;;5.99;71.13
9261;BME280;4667;42.726;23.252;2024-03-08T01:02:22;95244.88;;;6.24;70.94
9261;BME280;4667;42.726;23.252;2024-03-08T01:04:52;95236.28;;;6.17;71.17
9261;BME280;4667;42.726;23.252;2024-03-08T01:07:21;95232.78;;;6.23;70.65
9261;BME280;4667;42.726;23.252;2024-03-08T01:09:48;94928.97;;;4.18;70.60
9261;BME280;4667;42.726;23.252;2024-03-08T01:12:14;95086.75;;;5.22;70.31
9261;BME280;4667;42.726;23.252;2024-03-08T01:14:41;95230.91;;;6.12;69.92
9261;BME280;4667;42.726;23.252;2024-03-08T01:17:08;95125.09;;;5.46;70.05
9261;BME280;4667;42.726;23.252;2024-03-08T01:19:37;95235.84;;;6.02;69.90
9261;BME280;4667;42.726;23.252;2024-03-08T01:22:04;95205.22;;;5.84;69.63
9261;BME280;4667;42.726;23.252;2024-03-08T01:24:32;94958.94;;;4.34;69.86
9261;BME280;4667;42.726;23.252;2024-03-08T01:27:00;95106.81;;;5.21;70.39
9261;BME280;4667;42.726;23.252;2024-03-08T01:29:28;95227.09;;;6.08;70.39
9261;BME280;4667;42.726;23.252;2024-03-08T01:31:55;95221.00;;;6.14;70.06
9261;BME280;4667;42.726;23.252;2024-03-08T01:34:22;95178.81;;;5.86;69.97
9261;BME280;4667;42.726;23.252;2024-03-08T01:36:49;95159.03;;;5.71;69.47
9261;BME280;4667;42.726;23.252;2024-03-08T01:39:16;95213.59;;;6.11;69.44
9261;BME280;4667;42.726;23.252;2024-03-08T01:41:44;95210.88;;;6.18;69.32
9261;BME280;4667;42.726;23.252;2024-03-08T01:44:11;95215.31;;;6.17;68.59
9261;BME280;4667;42.726;23.252;2024-03-08T01:46:41;95212.28;;;6.20;68.74
9261;BME280;4667;42.726;23.252;2024-03-08T01:49:10;95207.84;;;6.21;69.09
9261;BME280;4667;42.726;23.252;2024-03-08T01:51:38;95150.34;;;5.96;69.16
9261;BME280;4667;42.726;23.252;2024-03-08T01:54:07;95202.28;;;6.29;68.91
9261;BME280;4667;42.726;23.252;2024-03-08T01:56:40;95121.81;;;5.69;67.96
9261;BME280;4667;42.726;23.252;2024-03-08T01:59:08;95167.25;;;5.93;67.96
9261;BME280;4667;42.726;23.252;2024-03-08T02:01:36;95184.94;;;6.16;68.08
9261;BME280;4667;42.726;23.252;2024-03-08T02:04:03;95196.91;;;6.24;67.92
9261;BME280;4667;42.726;23.252;2024-03-08T02:06:31;95201.94;;;6.25;68.12
9261;BME280;4667;42.726;23.252;2024-03-08T02:08:58;95157.31;;;5.84;68.24
9261;BME280;4667;42.726;23.252;2024-03-08T02:11:25;95208.22;;;6.24;68.25
9261;BME280;4667;42.726;23.252;2024-03-08T02:13:52;95202.75;;;6.26;67.79
9261;BME280;4667;42.726;23.252;2024-03-08T02:16:22;95207.53;;;6.29;67.30
9261;BME280;4667;42.726;23.252;2024-03-08T02:18:48;94688.13;;;2.94;66.58
9261;BME280;4667;42.726;23.252;2024-03-08T02:21:18;95170.38;;;6.02;67.17
9261;BME280;4667;42.726;23.252;2024-03-08T02:23:44;95207.19;;;6.25;66.93
9261;BME280;4667;42.726;23.252;2024-03-08T02:26:12;95210.38;;;6.28;67.34
9261;BME280;4667;42.726;23.252;2024-03-08T02:28:39;95207.19;;;6.25;67.96
9261;BME280;4667;42.726;23.252;2024-03-08T02:31:08;95182.97;;;6.12;67.38
9261;BME280;4667;42.726;23.252;2024-03-08T02:33:35;95204.34;;;6.27;67.30
9261;BME280;4667;42.726;23.252;2024-03-08T02:36:01;95184.28;;;6.03;67.05
9261;BME280;4667;42.726;23.252;2024-03-08T02:38:29;95123.56;;;5.57;67.93
9261;BME280;4667;42.726;23.252;2024-03-08T02:40:56;95076.69;;;5.37;67.45
9261;BME280;4667;42.726;23.252;2024-03-08T02:43:25;95209.16;;;6.30;66.77
9261;BME280;4667;42.726;23.252;2024-03-08T02:45:53;95109.16;;;5.66;66.81
9261;BME280;4667;42.726;23.252;2024-03-08T02:48:20;95209.28;;;6.35;67.13
9261;BME280;4667;42.726;23.252;2024-03-08T02:50:47;95216.47;;;6.40;67.30
9261;BME280;4667;42.726;23.252;2024-03-08T02:53:16;95210.88;;;6.36;66.70
9261;BME280;4667;42.726;23.252;2024-03-08T02:55:45;95111.22;;;5.64;66.89
9261;BME280;4667;42.726;23.252;2024-03-08T02:58:12;95087.44;;;5.47;66.68
9261;BME280;4667;42.726;23.252;2024-03-08T03:00:40;95211.53;;;6.32;66.90
9261;BME280;4667;42.726;23.252;2024-03-08T03:03:07;95115.16;;;5.73;66.30
9261;BME280;4667;42.726;23.252;2024-03-08T03:05:34;95221.22;;;6.31;66.33
9261;BME280;4667;42.726;23.252;2024-03-08T03:08:01;95215.19;;;6.31;66.44
9261;BME280;4667;42.726;23.252;2024-03-08T03:10:29;95124.44;;;5.69;66.99
9261;BME280;4667;42.726;23.252;2024-03-08T03:12:58;95083.41;;;5.33;68.27
9261;BME280;4667;42.726;23.252;2024-03-08T03:15:24;95229.72;;;6.27;68.17
9261;BME280;4667;42.726;23.252;2024-03-08T03:17:51;95183.34;;;5.97;67.50
9261;BME280;4667;42.726;23.252;2024-03-08T03:20:19;95057.09;;;5.10;67.97
9261;BME280;4667;42.726;23.252;2024-03-08T03:22:52;95154.81;;;5.70;68.14
9261;BME280;4667;42.726;23.252;2024-03-08T03:25:19;95223.25;;;6.11;68.76
9261;BME280;4667;42.726;23.252;2024-03-08T03:27:52;95228.88;;;5.96;68.99
9261;BME280;4667;42.726;23.252;2024-03-08T03:30:23;95236.59;;;6.09;68.66
9261;BME280;4667;42.726;23.252;2024-03-08T03:32:55;95230.97;;;6.06;68.31
9261;BME280;4667;42.726;23.252;2024-03-08T03:35:24;95242.03;;;6.08;67.92
9261;BME280;4667;42.726;23.252;2024-03-08T03:37:51;95256.41;;;5.98;68.09
9261;BME280;4667;42.726;23.252;2024-03-08T03:40:27;95243.63;;;6.09;67.22
9261;BME280;4667;42.726;23.252;2024-03-08T03:42:54;95244.94;;;5.99;66.81
9261;BME280;4667;42.726;23.252;2024-03-08T03:45:22;95109.06;;;5.00;66.75
9261;BME280;4667;42.726;23.252;2024-03-08T03:47:49;95256.78;;;6.02;66.88
9261;BME280;4667;42.726;23.252;2024-03-08T03:50:17;95210.00;;;5.69;66.90
9261;BME280;4667;42.726;23.252;2024-03-08T03:52:44;95258.19;;;6.05;66.38
9261;BME280;4667;42.726;23.252;2024-03-08T03:55:12;95255.72;;;6.10;66.03
9261;BME280;4667;42.726;23.252;2024-03-08T03:57:39;95217.63;;;5.70;65.03
9261;BME280;4667;42.726;23.252;2024-03-08T04:00:07;95263.47;;;5.98;64.40
9261;BME280;4667;42.726;23.252;2024-03-08T04:02:37;95262.56;;;5.86;64.10
9261;BME280;4667;42.726;23.252;2024-03-08T04:05:06;95257.81;;;6.01;63.31
9261;BME280;4667;42.726;23.252;2024-03-08T04:07:33;95262.16;;;5.89;63.40
9261;BME280;4667;42.726;23.252;2024-03-08T04:10:00;95267.56;;;5.87;63.00
9261;BME280;4667;42.726;23.252;2024-03-08T04:12:27;95269.69;;;5.79;63.38
9261;BME280;4667;42.726;23.252;2024-03-08T04:14:55;95201.25;;;5.13;63.19
9261;BME280;4667;42.726;23.252;2024-03-08T04:17:22;95272.25;;;5.60;63.70
9261;BME280;4667;42.726;23.252;2024-03-08T04:19:52;95277.53;;;5.79;63.65
9261;BME280;4667;42.726;23.252;2024-03-08T04:22:18;95281.44;;;5.69;64.92
9261;BME280;4667;42.726;23.252;2024-03-08T04:24:45;95286.50;;;5.89;64.51
9261;BME280;4667;42.726;23.252;2024-03-08T04:27:13;95218.34;;;5.34;64.36
9261;BME280;4667;42.726;23.252;2024-03-08T04:29:40;95286.59;;;5.76;64.90
9261;BME280;4667;42.726;23.252;2024-03-08T04:32:07;95150.16;;;4.86;64.75
9261;BME280;4667;42.726;23.252;2024-03-08T04:34:39;95234.06;;;5.53;65.27
9261;BME280;4667;42.726;23.252;2024-03-08T04:37:07;95293.19;;;5.85;64.96
9261;BME280;4667;42.726;23.252;2024-03-08T04:39:36;95301.41;;;5.89;64.31
9261;BME280;4667;42.726;23.252;2024-03-08T04:42:04;95278.66;;;5.64;64.09
9261;BME280;4667;42.726;23.252;2024-03-08T04:44:35;95099.50;;;4.37;64.84
9261;BME280;4667;42.726;23.252;2024-03-08T04:47:03;95307.16;;;5.72;64.80
9261;BME280;4667;42.726;23.252;2024-03-08T04:49:31;95113.13;;;4.39;65.27
9261;BME280;4667;42.726;23.252;2024-03-08T04:52:01;95266.63;;;5.38;65.25
9261;BME280;4667;42.726;23.252;2024-03-08T04:54:29;95302.38;;;5.69;65.46
9261;BME280;4667;42.726;23.252;2024-03-08T04:56:57;94903.25;;;3.08;65.68
9261;BME280;4667;42.726;23.252;2024-03-08T04:59:25;95312.69;;;5.64;65.95
9261;BME280;4667;42.726;23.252;2024-03-08T05:01:52;95308.81;;;5.67;65.77
9261;BME280;4667;42.726;23.252;2024-03-08T05:04:19;95314.44;;;5.70;65.42
9261;BME280;4667;42.726;23.252;2024-03-08T05:06:47;95310.88;;;5.65;66.01
9261;BME280;4667;42.726;23.252;2024-03-08T05:09:14;95210.03;;;4.94;65.72
9261;BME280;4667;42.726;23.252;2024-03-08T05:11:43;95060.19;;;4.00;65.73
9261;BME280;4667;42.726;23.252;2024-03-08T05:14:10;95319.19;;;5.55;65.90
9261;BME280;4667;42.726;23.252;2024-03-08T05:16:40;95323.69;;;5.48;66.63
9261;BME280;4667;42.726;23.252;2024-03-08T05:19:07;95222.72;;;4.59;67.76
9261;BME280;4667;42.726;23.252;2024-03-08T05:21:34;95278.25;;;5.11;67.22
9261;BME280;4667;42.726;23.252;2024-03-08T05:24:01;95153.38;;;4.25;66.98
9261;BME280;4667;42.726;23.252;2024-03-08T05:26:28;95337.00;;;5.40;67.26
9261;BME280;4667;42.726;23.252;2024-03-08T05:28:57;95341.31;;;5.28;67.88
9261;BME280;4667;42.726;23.252;2024-03-08T05:31:24;95120.88;;;3.89;67.37
9261;BME280;4667;42.726;23.252;2024-03-08T05:33:51;95365.44;;;5.30;68.32
9261;BME280;4667;42.726;23.252;2024-03-08T05:36:19;95363.75;;;5.42;67.98
9261;BME280;4667;42.726;23.252;2024-03-08T05:38:47;95239.75;;;4.68;68.00
9261;BME280;4667;42.726;23.252;2024-03-08T05:41:28;94959.41;;;2.91;68.04
9261;BME280;4667;42.726;23.252;2024-03-08T05:43:56;95304.16;;;5.19;68.58
9261;BME280;4667;42.726;23.252;2024-03-08T05:46:24;95154.66;;;4.15;67.89
9261;BME280;4667;42.726;23.252;2024-03-08T05:48:51;94853.72;;;2.25;67.61
9261;BME280;4667;42.726;23.252;2024-03-08T05:51:30;95263.38;;;4.86;68.14
9261;BME280;4667;42.726;23.252;2024-03-08T05:54:00;95312.97;;;5.25;67.47
9261;BME280;4667;42.726;23.252;2024-03-08T05:56:28;95190.47;;;4.40;67.43
9261;BME280;4667;42.726;23.252;2024-03-08T05:58:57;94925.25;;;2.68;67.28
9261;BME280;4667;42.726;23.252;2024-03-08T06:01:24;95249.22;;;4.62;68.44
9261;BME280;4667;42.726;23.252;2024-03-08T06:03:52;95248.03;;;4.58;67.79
9261;BME280;4667;42.726;23.252;2024-03-08T06:06:21;94678.34;;;0.97;67.66
9261;BME280;4667;42.726;23.252;2024-03-08T06:08:48;95100.28;;;3.74;68.03
9261;BME280;4667;42.726;23.252;2024-03-08T06:11:16;95206.75;;;4.42;68.26
9261;BME280;4667;42.726;23.252;2024-03-08T06:13:43;95385.97;;;5.58;68.03
9261;BME280;4667;42.726;23.252;2024-03-08T06:16:17;94726.09;;;1.29;68.19
9261;BME280;4667;42.726;23.252;2024-03-08T06:18:45;95405.44;;;5.68;68.33
9261;BME280;4667;42.726;23.252;2024-03-08T06:21:12;95190.09;;;4.36;67.57
9261;BME280;4667;42.726;23.252;2024-03-08T06:23:39;94998.16;;;3.26;67.19
9261;BME280;4667;42.726;23.252;2024-03-08T06:26:06;95405.00;;;5.71;67.71
9261;BME280;4667;42.726;23.252;2024-03-08T06:28:34;95044.66;;;3.35;67.48
9261;BME280;4667;42.726;23.252;2024-03-08T06:31:03;95394.53;;;5.71;68.07
9261;BME280;4667;42.726;23.252;2024-03-08T06:33:34;95252.19;;;4.73;68.19
9261;BME280;4667;42.726;23.252;2024-03-08T06:36:03;95278.88;;;4.81;67.98
9261;BME280;4667;42.726;23.252;2024-03-08T06:38:30;95251.56;;;4.77;67.94
9261;BME280;4667;42.726;23.252;2024-03-08T06:40:57;95274.34;;;4.95;67.83
9261;BME280;4667;42.726;23.252;2024-03-08T06:43:28;95005.56;;;3.35;66.63
9261;BME280;4667;42.726;23.252;2024-03-08T06:45:59;95184.06;;;4.36;67.36
9261;BME280;4667;42.726;23.252;2024-03-08T06:48:29;95202.66;;;4.53;67.43
9261;BME280;4667;42.726;23.252;2024-03-08T06:50:59;95263.88;;;5.02;67.06
9261;BME280;4667;42.726;23.252;2024-03-08T06:53:29;95405.59;;;6.05;66.94
9261;BME280;4667;42.726;23.252;2024-03-08T06:55:56;95298.38;;;5.10;67.56
9261;BME280;4667;42.726;23.252;2024-03-08T06:58:26;95298.47;;;5.29;67.21
9261;BME280;4667;42.726;23.252;2024-03-08T07:00:53;95012.09;;;3.51;66.96
9261;BME280;4667;42.726;23.252;2024-03-08T07:03:24;95197.31;;;4.73;66.90
9261;BME280;4667;42.726;23.252;2024-03-08T07:05:52;95026.16;;;3.50;67.34
9261;BME280;4667;42.726;23.252;2024-03-08T07:08:23;95306.00;;;5.43;65.71
9261;BME280;4667;42.726;23.252;2024-03-08T07:10:52;95418.00;;;6.16;66.04
9261;BME280;4667;42.726;23.252;2024-03-08T07:13:19;94792.03;;;2.32;65.52
9261;BME280;4667;42.726;23.252;2024-03-08T07:15:55;95368.53;;;6.27;64.99
9261;BME280;4667;42.726;23.252;2024-03-08T07:18:31;95292.09;;;5.68;64.53
9261;BME280;4667;42.726;23.252;2024-03-08T07:20:59;95467.44;;;6.74;64.28
9261;BME280;4667;42.726;23.252;2024-03-08T07:23:29;95283.78;;;5.78;64.91
9261;BME280;4667;42.726;23.252;2024-03-08T07:26:30;95379.25;;;6.62;63.69
9261;BME280;4667;42.726;23.252;2024-03-08T07:28:58;95314.84;;;6.17;63.43
9261;BME280;4667;42.726;23.252;2024-03-08T07:34:32;95107.63;;;4.79;63.04
9261;BME280;4667;42.726;23.252;2024-03-08T07:37:00;95204.50;;;5.52;63.77
9261;BME280;4667;42.726;23.252;2024-03-08T07:39:38;95429.25;;;7.15;63.43
9261;BME280;4667;42.726;23.252;2024-03-08T07:42:09;95366.72;;;6.82;63.63
9261;BME280;4667;42.726;23.252;2024-03-08T07:45:01;95437.69;;;7.36;63.17
9261;BME280;4667;42.726;23.252;2024-03-08T07:47:38;95396.41;;;7.13;63.80
9261;BME280;4667;42.726;23.252;2024-03-08T07:50:09;95450.50;;;7.44;62.93
9261;BME280;4667;42.726;23.252;2024-03-08T07:52:37;95057.16;;;5.03;62.86
9261;BME280;4667;42.726;23.252;2024-03-08T07:55:06;95443.56;;;7.49;62.57
9261;BME280;4667;42.726;23.252;2024-03-08T07:57:35;95034.34;;;5.10;61.45
9261;BME280;4667;42.726;23.252;2024-03-08T08:00:05;95294.03;;;6.89;61.33
9261;BME280;4667;42.726;23.252;2024-03-08T08:02:38;95085.19;;;5.51;60.36
9261;BME280;4667;42.726;23.252;2024-03-08T08:10:52;94819.91;;;4.57;57.79
9261;BME280;4667;42.726;23.252;2024-03-08T08:16:14;95093.47;;;6.45;56.97
9261;BME280;4667;42.726;23.252;2024-03-08T08:18:57;95030.94;;;6.37;56.73
9261;BME280;4667;42.726;23.252;2024-03-08T08:21:25;95163.44;;;7.45;56.03
9261;BME280;4667;42.726;23.252;2024-03-08T08:31:37;95200.25;;;6.91;55.84
9261;BME280;4667;42.726;23.252;2024-03-08T08:34:04;95364.69;;;8.33;56.12
9261;BME280;4667;42.726;23.252;2024-03-08T08:36:33;95317.75;;;8.01;57.57
9261;BME280;4667;42.726;23.252;2024-03-08T08:39:04;95312.84;;;8.17;54.53
9261;BME280;4667;42.726;23.252;2024-03-08T08:47:20;95409.38;;;8.68;55.45
9261;BME280;4667;42.726;23.252;2024-03-08T08:49:49;95154.78;;;7.33;55.00
9261;BME280;4667;42.726;23.252;2024-03-08T08:52:32;95061.34;;;7.32;53.70
9261;BME280;4667;42.726;23.252;2024-03-08T08:55:17;95373.56;;;10.10;52.63
9261;BME280;4667;42.726;23.252;2024-03-08T08:57:56;94820.53;;;6.60;50.95
9261;BME280;4667;42.726;23.252;2024-03-08T09:00:37;94842.09;;;6.90;50.06
9261;BME280;4667;42.726;23.252;2024-03-08T09:03:19;95063.13;;;8.69;50.31
9261;BME280;4667;42.726;23.252;2024-03-08T09:06:00;95435.75;;;11.17;49.82
9261;BME280;4667;42.726;23.252;2024-03-08T09:08:35;95413.66;;;11.77;49.87
9261;BME280;4667;42.726;23.252;2024-03-08T09:11:18;95143.94;;;10.45;49.68
9261;BME280;4667;42.726;23.252;2024-03-08T09:13:47;94860.66;;;8.47;47.50
9261;BME280;4667;42.726;23.252;2024-03-08T09:16:15;95126.41;;;10.12;46.77
9261;BME280;4667;42.726;23.252;2024-03-08T09:19:00;95424.22;;;11.72;46.90
9261;BME280;4667;42.726;23.252;2024-03-08T09:21:31;95059.19;;;10.09;47.66
9261;BME280;4667;42.726;23.252;2024-03-08T09:24:00;95016.22;;;9.60;45.07
9261;BME280;4667;42.726;23.252;2024-03-08T09:26:29;95189.59;;;11.05;45.80
9261;BME280;4667;42.726;23.252;2024-03-08T09:28:58;95195.31;;;10.70;43.58
9261;BME280;4667;42.726;23.252;2024-03-08T09:31:29;95170.06;;;11.01;44.69
9261;BME280;4667;42.726;23.252;2024-03-08T09:34:15;95250.50;;;10.71;45.92
9261;BME280;4667;42.726;23.252;2024-03-08T09:36:56;95293.72;;;11.78;44.80
9261;BME280;4667;42.726;23.252;2024-03-08T09:40:24;95134.78;;;11.12;46.44
9261;BME280;4667;42.726;23.252;2024-03-08T09:45:21;95098.38;;;11.61;44.12
9261;BME280;4667;42.726;23.252;2024-03-08T09:47:51;95074.75;;;10.97;44.59
9261;BME280;4667;42.726;23.252;2024-03-08T09:50:33;95159.16;;;12.09;42.27
9261;BME280;4667;42.726;23.252;2024-03-08T10:06:08;95430.72;;;12.98;43.19
9261;BME280;4667;42.726;23.252;2024-03-08T10:13:44;95194.75;;;11.91;42.00
9261;BME280;4667;42.726;23.252;2024-03-08T10:16:19;95069.78;;;11.01;42.56
9261;BME280;4667;42.726;23.252;2024-03-08T10:24:04;95201.19;;;11.68;43.67
9261;BME280;4667;42.726;23.252;2024-03-08T10:26:31;95108.34;;;12.02;41.25
9261;BME280;4667;42.726;23.252;2024-03-08T10:40:15;95181.19;;;11.45;42.09
9261;BME280;4667;42.726;23.252;2024-03-08T10:42:56;95416.19;;;13.00;41.94
9261;BME280;4667;42.726;23.252;2024-03-08T10:45:35;95328.06;;;13.15;41.24
9261;BME280;4667;42.726;23.252;2024-03-08T10:48:27;95017.78;;;11.54;39.76
9261;BME280;4667;42.726;23.252;2024-03-08T10:50:57;95296.09;;;13.22;40.43
9261;BME280;4667;42.726;23.252;2024-03-08T10:53:26;95163.22;;;12.42;41.14
9261;BME280;4667;42.726;23.252;2024-03-08T10:55:56;95242.34;;;12.48;41.25
9261;BME280;4667;42.726;23.252;2024-03-08T10:58:27;95099.97;;;12.20;43.18
9261;BME280;4667;42.726;23.252;2024-03-08T11:00:56;95371.84;;;14.96;39.63
9261;BME280;4667;42.726;23.252;2024-03-08T11:03:45;95371.56;;;15.57;35.51
9261;BME280;4667;42.726;23.252;2024-03-08T11:06:22;95365.44;;;16.01;36.35
9261;BME280;4667;42.726;23.252;2024-03-08T11:08:52;95301.75;;;16.68;33.50
9261;BME280;4667;42.726;23.252;2024-03-08T11:11:26;95095.50;;;15.46;35.24
9261;BME280;4667;42.726;23.252;2024-03-08T11:13:55;95292.56;;;16.84;33.13
9261;BME280;4667;42.726;23.252;2024-03-08T11:16:39;95191.47;;;17.12;31.93
9261;BME280;4667;42.726;23.252;2024-03-08T11:19:34;95309.25;;;17.89;30.13
9261;BME280;4667;42.726;23.252;2024-03-08T11:22:20;95152.31;;;18.05;29.80
9261;BME280;4667;42.726;23.252;2024-03-08T11:24:49;95247.97;;;18.58;29.58
9261;BME280;4667;42.726;23.252;2024-03-08T11:27:18;95289.75;;;18.08;30.52
9261;BME280;4667;42.726;23.252;2024-03-08T11:29:59;95341.31;;;17.47;31.97
9261;BME280;4667;42.726;23.252;2024-03-08T11:32:35;95238.00;;;15.76;34.11
9261;BME280;4667;42.726;23.252;2024-03-08T11:35:18;95295.84;;;15.11;35.38
9261;BME280;4667;42.726;23.252;2024-03-08T11:37:45;95235.09;;;14.19;35.24
9261;BME280;4667;42.726;23.252;2024-03-08T11:40:14;95204.47;;;13.51;36.68
9261;BME280;4667;42.726;23.252;2024-03-08T11:42:45;95226.97;;;13.34;37.63
9261;BME280;4667;42.726;23.252;2024-03-08T11:45:20;95288.41;;;14.12;37.67
9261;BME280;4667;42.726;23.252;2024-03-08T11:47:48;95141.81;;;13.96;36.49
9261;BME280;4667;42.726;23.252;2024-03-08T11:50:15;95208.41;;;15.14;34.73
9261;BME280;4667;42.726;23.252;2024-03-08T11:52:44;95335.00;;;16.76;35.67
9261;BME280;4667;42.726;23.252;2024-03-08T11:55:12;95353.47;;;17.34;34.12
9261;BME280;4667;42.726;23.252;2024-03-08T11:57:40;95020.59;;;16.48;33.62
9261;BME280;4667;42.726;23.252;2024-03-08T12:00:18;95319.13;;;18.82;31.07
9261;BME280;4667;42.726;23.252;2024-03-08T12:03:02;95319.72;;;19.20;31.19
9261;BME280;4667;42.726;23.252;2024-03-08T12:05:30;95145.91;;;17.60;31.01
9261;BME280;4667;42.726;23.252;2024-03-08T12:07:57;95311.28;;;19.40;30.48
9261;BME280;4667;42.726;23.252;2024-03-08T12:10:24;95219.38;;;18.45;30.85
9261;BME280;4667;42.726;23.252;2024-03-08T12:12:53;95302.38;;;18.62;29.97
9261;BME280;4667;42.726;23.252;2024-03-08T12:15:23;95315.59;;;18.40;30.62
9261;BME280;4667;42.726;23.252;2024-03-08T12:17:52;95012.03;;;16.51;30.04
9261;BME280;4667;42.726;23.252;2024-03-08T12:20:22;95149.00;;;17.67;29.27
9261;BME280;4667;42.726;23.252;2024-03-08T12:22:53;95312.66;;;19.24;30.18
9261;BME280;4667;42.726;23.252;2024-03-08T12:25:22;95323.53;;;19.55;29.88
9261;BME280;4667;42.726;23.252;2024-03-08T12:27:52;95313.28;;;19.21;29.83
9261;BME280;4667;42.726;23.252;2024-03-08T12:30:24;95310.47;;;18.57;30.88
9261;BME280;4667;42.726;23.252;2024-03-08T12:32:54;95302.00;;;17.76;32.01
9261;BME280;4667;42.726;23.252;2024-03-08T12:35:23;95309.97;;;17.57;33.06
9261;BME280;4667;42.726;23.252;2024-03-08T12:37:51;95306.69;;;17.04;33.23
9261;BME280;4667;42.726;23.252;2024-03-08T12:40:19;95307.88;;;16.93;33.60
9261;BME280;4667;42.726;23.252;2024-03-08T12:42:46;95307.06;;;17.35;33.40
9261;BME280;4667;42.726;23.252;2024-03-08T12:45:14;95298.94;;;17.45;32.41
9261;BME280;4667;42.726;23.252;2024-03-08T12:47:42;95301.97;;;17.38;32.63
9261;BME280;4667;42.726;23.252;2024-03-08T12:50:10;95295.69;;;16.62;33.56
9261;BME280;4667;42.726;23.252;2024-03-08T12:52:37;95302.00;;;16.19;34.14
9261;BME280;4667;42.726;23.252;2024-03-08T12:55:05;95294.25;;;16.75;34.51
9261;BME280;4667;42.726;23.252;2024-03-08T12:57:34;95297.06;;;17.27;32.98
9261;BME280;4667;42.726;23.252;2024-03-08T13:00:05;95291.72;;;17.64;32.83
9261;BME280;4667;42.726;23.252;2024-03-08T13:02:38;95293.66;;;17.97;31.19
9261;BME280;4667;42.726;23.252;2024-03-08T13:05:07;95277.94;;;17.95;30.76
9261;BME280;4667;42.726;23.252;2024-03-08T13:07:36;95301.00;;;17.86;31.52
9261;BME280;4667;42.726;23.252;2024-03-08T13:10:05;95296.00;;;18.17;31.31
9261;BME280;4667;42.726;23.252;2024-03-08T13:12:33;95283.88;;;17.54;31.32
9261;BME280;4667;42.726;23.252;2024-03-08T13:15:04;95300.97;;;16.92;33.23
9261;BME280;4667;42.726;23.252;2024-03-08T13:17:32;95290.81;;;16.70;32.89
9261;BME280;4667;42.726;23.252;2024-03-08T13:19:58;95297.09;;;16.84;33.43
9261;BME280;4667;42.726;23.252;2024-03-08T13:22:27;95286.69;;;16.58;32.24
9261;BME280;4667;42.726;23.252;2024-03-08T13:24:54;95280.78;;;15.79;33.90
9261;BME280;4667;42.726;23.252;2024-03-08T13:27:21;95298.75;;;15.53;35.07
9261;BME280;4667;42.726;23.252;2024-03-08T13:29:49;95301.59;;;15.23;35.13
9261;BME280;4667;42.726;23.252;2024-03-08T13:32:16;95293.34;;;14.75;36.13
9261;BME280;4667;42.726;23.252;2024-03-08T13:34:46;95290.75;;;14.54;37.37
9261;BME280;4667;42.726;23.252;2024-03-08T13:37:16;95271.72;;;13.96;38.19
9261;BME280;4667;42.726;23.252;2024-03-08T13:39:45;95298.50;;;13.49;38.94
9261;BME280;4667;42.726;23.252;2024-03-08T13:42:13;95290.94;;;12.85;39.79
9261;BME280;4667;42.726;23.252;2024-03-08T13:44:45;95296.75;;;12.92;40.89
9261;BME280;4667;42.726;23.252;2024-03-08T13:47:13;95294.41;;;13.00;40.67
9261;BME280;4667;42.726;23.252;2024-03-08T13:49:40;95233.81;;;12.31;41.32
9261;BME280;4667;42.726;23.252;2024-03-08T13:52:12;95299.44;;;12.34;41.63
9261;BME280;4667;42.726;23.252;2024-03-08T13:54:42;95210.09;;;11.57;42.09
9261;BME280;4667;42.726;23.252;2024-03-08T13:57:12;95307.09;;;11.93;42.27
9261;BME280;4667;42.726;23.252;2024-03-08T13:59:42;95232.09;;;11.35;42.64
9261;BME280;4667;42.726;23.252;2024-03-08T14:02:15;95160.06;;;10.76;42.83
9261;BME280;4667;42.726;23.252;2024-03-08T14:04:43;94743.47;;;8.07;43.45
9261;BME280;4667;42.726;23.252;2024-03-08T14:07:10;95056.03;;;9.85;43.54
9261;BME280;4667;42.726;23.252;2024-03-08T14:09:39;94947.13;;;9.04;44.31
9261;BME280;4667;42.726;23.252;2024-03-08T14:12:14;94956.56;;;9.22;44.41
9261;BME280;4667;42.726;23.252;2024-03-08T14:14:42;95173.59;;;10.57;44.99
9261;BME280;4667;42.726;23.252;2024-03-08T14:17:10;94918.88;;;8.55;44.13
9261;BME280;4667;42.726;23.252;2024-03-08T14:19:43;94939.81;;;8.67;44.07
9261;BME280;4667;42.726;23.252;2024-03-08T14:22:10;95307.66;;;10.87;44.84
9261;BME280;4667;42.726;23.252;2024-03-08T14:24:43;95308.31;;;11.00;45.04
9261;BME280;4667;42.726;23.252;2024-03-08T14:27:27;95107.41;;;9.66;44.72
9261;BME280;4667;42.726;23.252;2024-03-08T14:29:55;95096.19;;;9.54;44.97
9261;BME280;4667;42.726;23.252;2024-03-08T14:32:36;94949.16;;;8.41;44.39
9261;BME280;4667;42.726;23.252;2024-03-08T14:35:07;94804.84;;;7.50;44.77